createdAt,value
2018-11-25T00:00:26.047Z,126.92
2018-11-25T00:01:31.875Z,131.10
2018-11-25T00:02:37.400Z,124.27
2018-11-25T00:03:43.479Z,128.35
2018-11-25T00:04:48.891Z,140.80
2018-11-25T00:05:54.262Z,131.75
2018-11-25T00:07:14.405Z,129.20
2018-11-25T00:08:19.810Z,126.10
2018-11-25T00:09:25.267Z,120.77
2018-11-25T00:10:30.676Z,130.95
2018-11-25T00:11:36.028Z,119.47
2018-11-25T00:12:41.367Z,118.35
2018-11-25T00:13:46.679Z,115.80
2018-11-25T00:14:52.477Z,128.85
2018-11-25T00:15:57.963Z,121.15
2018-11-25T00:17:03.373Z,122.15
2018-11-25T00:18:08.615Z,124.27
2018-11-25T00:19:13.992Z,115.47
2018-11-25T00:20:19.320Z,133.50
2018-11-25T00:21:24.644Z,135.03
2018-11-25T00:22:29.951Z,129.97
2018-11-25T00:23:35.343Z,131.37
2018-11-25T00:24:40.603Z,125.10
2018-11-25T00:25:46.029Z,119.60
2018-11-25T00:26:52.072Z,122.10
2018-11-25T00:27:58.137Z,122.05
2018-11-25T00:29:03.621Z,112.12
2018-11-25T00:32:39.927Z,114.30
2018-11-25T00:33:45.268Z,131.40
2018-11-25T00:34:55.379Z,117.22
2018-11-25T00:36:01.330Z,132.00
2018-11-25T00:37:08.937Z,126.53
2018-11-25T00:38:14.975Z,118.53
2018-11-25T00:39:21.116Z,116.93
2018-11-25T00:40:26.676Z,127.30
2018-11-25T00:41:34.256Z,135.35
2018-11-25T00:42:40.507Z,128.45
2018-11-25T00:43:46.592Z,121.72
2018-11-25T00:44:52.021Z,125.65
2018-11-25T00:45:59.390Z,124.40
2018-11-25T00:47:04.726Z,122.67
2018-11-25T00:48:10.219Z,136.30
2018-11-25T00:49:15.543Z,122.20
2018-11-25T00:50:20.852Z,118.28
2018-11-25T00:51:26.184Z,113.42
2018-11-25T00:52:31.451Z,120.80
2018-11-25T00:53:36.623Z,115.45
2018-11-25T00:54:43.015Z,124.53
2018-11-25T00:55:48.331Z,126.53
2018-11-25T00:56:53.733Z,124.05
2018-11-25T00:57:59.145Z,120.75
2018-11-25T00:59:04.994Z,132.87
2018-11-25T01:00:14.965Z,137.00
2018-11-25T01:01:20.312Z,133.45
2018-11-25T01:02:25.680Z,130.30
2018-11-25T01:03:31.079Z,122.55
2018-11-25T01:04:37.336Z,119.50
2018-11-25T01:05:42.814Z,111.50
2018-11-25T01:06:48.374Z,112.37
2018-11-25T01:07:53.787Z,116.62
2018-11-25T01:09:04.090Z,117.65
2018-11-25T01:10:11.753Z,109.75
2018-11-25T01:11:17.139Z,108.35
2018-11-25T01:12:23.731Z,123.85
2018-11-25T01:13:29.080Z,122.50
2018-11-25T01:14:34.482Z,117.62
2018-11-25T01:15:39.892Z,116.55
2018-11-25T01:16:45.355Z,120.60
2018-11-25T01:17:50.691Z,128.30
2018-11-25T01:18:55.979Z,117.75
2018-11-25T01:20:02.265Z,117.70
2018-11-25T01:21:07.795Z,120.20
2018-11-25T01:22:13.212Z,117.35
2018-11-25T01:23:19.212Z,112.00
2018-11-25T01:24:24.489Z,114.15
2018-11-25T01:25:29.824Z,114.60
2018-11-25T01:26:35.090Z,113.28
2018-11-25T01:27:44.469Z,120.05
2018-11-25T01:28:51.061Z,110.25
2018-11-25T01:30:02.103Z,118.70
2018-11-25T01:31:07.426Z,127.05
2018-11-25T01:32:12.876Z,123.05
2018-11-25T01:33:20.380Z,139.03
2018-11-25T01:34:29.001Z,137.45
2018-11-25T01:35:34.374Z,144.22
2018-11-25T01:36:41.464Z,129.30
2018-11-25T01:37:47.393Z,156.10
2018-11-25T01:38:53.487Z,149.32
2018-11-25T01:39:59.145Z,158.27
2018-11-25T01:41:05.500Z,137.52
2018-11-25T01:42:10.963Z,140.43
2018-11-25T01:43:16.448Z,129.15
2018-11-25T01:44:22.086Z,142.18
2018-11-25T01:45:27.880Z,142.53
2018-11-25T01:46:33.353Z,134.27
2018-11-25T01:47:39.523Z,161.28
2018-11-25T01:48:45.572Z,134.75
2018-11-25T01:49:51.053Z,132.60
2018-11-25T01:50:56.332Z,133.95
2018-11-25T01:52:01.623Z,121.87
2018-11-25T01:53:07.115Z,131.75
2018-11-25T01:54:12.500Z,138.75
2018-11-25T01:55:19.916Z,137.85
2018-11-25T01:56:25.328Z,138.97
2018-11-25T01:57:30.844Z,130.93
2018-11-25T01:58:36.273Z,118.72
2018-11-25T01:59:41.651Z,132.00
2018-11-25T02:00:47.233Z,127.85
2018-11-25T02:01:52.748Z,127.92
2018-11-25T02:02:58.165Z,135.97
2018-11-25T02:04:03.933Z,137.15
2018-11-25T02:05:09.483Z,127.40
2018-11-25T02:06:15.046Z,129.60
2018-11-25T02:07:20.485Z,124.18
2018-11-25T02:08:26.475Z,124.60
2018-11-25T02:09:32.569Z,124.82
2018-11-25T02:10:37.924Z,132.20
2018-11-25T02:11:43.328Z,117.28
2018-11-25T02:12:48.832Z,139.12
2018-11-25T02:13:54.098Z,140.60
2018-11-25T02:15:00.107Z,132.65
2018-11-25T02:16:06.189Z,129.45
2018-11-25T02:17:11.582Z,143.20
2018-11-25T02:18:17.118Z,112.68
2018-11-25T02:19:22.443Z,120.60
2018-11-25T02:20:27.831Z,121.53
2018-11-25T02:21:33.183Z,119.00
2018-11-25T02:22:38.554Z,134.10
2018-11-25T02:23:44.656Z,122.42
2018-11-25T02:24:50.055Z,125.60
2018-11-25T02:25:56.591Z,127.92
2018-11-25T02:27:02.306Z,113.85
2018-11-25T02:28:08.208Z,130.35
2018-11-25T02:29:13.643Z,139.32
2018-11-25T02:30:19.348Z,127.90
2018-11-25T02:31:25.985Z,130.70
2018-11-25T02:32:31.272Z,128.87
2018-11-25T02:33:36.699Z,128.85
2018-11-25T02:34:43.307Z,138.70
2018-11-25T02:35:48.759Z,133.18
2018-11-25T02:36:55.123Z,137.30
2018-11-25T02:38:00.463Z,120.50
2018-11-25T02:39:08.483Z,159.05
2018-11-25T02:40:14.916Z,136.60
2018-11-25T02:41:21.440Z,154.93
2018-11-25T02:42:27.568Z,140.25
2018-11-25T02:43:32.960Z,129.47
2018-11-25T02:44:39.208Z,150.85
2018-11-25T02:45:46.054Z,159.05
2018-11-25T02:46:51.464Z,147.32
2018-11-25T02:47:57.337Z,144.05
2018-11-25T02:49:03.736Z,142.47
2018-11-25T02:50:15.638Z,133.15
2018-11-25T02:51:21.053Z,143.17
2018-11-25T02:52:26.505Z,146.47
2018-11-25T02:53:31.960Z,149.35
2018-11-25T02:54:37.336Z,160.70
2018-11-25T02:55:44.606Z,144.97
2018-11-25T02:56:49.983Z,165.57
2018-11-25T02:57:55.326Z,138.28
2018-11-25T02:59:00.610Z,152.27
2018-11-25T03:00:05.959Z,162.53
2018-11-25T03:01:12.364Z,172.70
2018-11-25T03:02:17.637Z,156.00
2018-11-25T03:03:22.972Z,231.75
2018-11-25T03:04:28.307Z,167.20
2018-11-25T03:05:33.606Z,181.87
2018-11-25T03:06:38.931Z,208.38
2018-11-25T03:07:45.224Z,182.07
2018-11-25T03:08:52.956Z,193.07
2018-11-25T03:10:00.587Z,165.62
2018-11-25T03:11:09.387Z,266.10
2018-11-25T03:12:16.331Z,301.05
2018-11-25T03:13:22.495Z,221.18
2018-11-25T03:14:27.976Z,247.10
2018-11-25T03:15:34.778Z,223.53
2018-11-25T03:16:42.164Z,265.05
2018-11-25T03:17:47.561Z,187.72
2018-11-25T03:18:53.895Z,178.78
2018-11-25T03:19:59.324Z,162.37
2018-11-25T03:21:05.382Z,240.52
2018-11-25T03:22:11.550Z,186.03
2018-11-25T03:23:16.926Z,157.95
2018-11-25T03:24:22.164Z,155.57
2018-11-25T03:25:28.386Z,173.13
2018-11-25T03:26:33.701Z,166.35
2018-11-25T03:27:39.194Z,150.03
2018-11-25T03:28:44.631Z,157.00
2018-11-25T03:29:49.915Z,181.02
2018-11-25T03:30:56.837Z,174.60
2018-11-25T03:32:02.339Z,155.32
2018-11-25T03:33:07.923Z,175.82
2018-11-25T03:34:13.215Z,138.75
2018-11-25T03:35:18.499Z,150.68
2018-11-25T03:36:23.811Z,161.43
2018-11-25T03:37:29.891Z,174.77
2018-11-25T03:38:35.180Z,197.47
2018-11-25T03:39:41.231Z,165.30
2018-11-25T03:40:47.547Z,164.35
2018-11-25T03:41:52.803Z,155.20
2018-11-25T03:42:58.011Z,147.72
2018-11-25T03:44:03.805Z,170.57
2018-11-25T03:45:12.539Z,169.68
2018-11-25T03:46:18.685Z,158.07
2018-11-25T03:47:24.147Z,167.28
2018-11-25T03:48:29.930Z,204.80
2018-11-25T03:49:35.224Z,161.82
2018-11-25T03:50:41.287Z,145.60
2018-11-25T03:51:49.484Z,280.05
2018-11-25T03:52:54.754Z,340.35
2018-11-25T03:53:59.994Z,175.55
2018-11-25T03:55:08.147Z,181.52
2018-11-25T03:56:13.496Z,169.05
2018-11-25T03:57:18.783Z,149.62
2018-11-25T03:58:25.782Z,183.97
2018-11-25T03:59:31.779Z,231.07
2018-11-25T04:00:37.118Z,181.05
2018-11-25T04:01:43.353Z,245.65
2018-11-25T04:02:50.527Z,292.25
2018-11-25T04:03:55.743Z,205.43
2018-11-25T04:05:01.077Z,231.50
2018-11-25T04:06:07.314Z,290.80
2018-11-25T04:07:12.815Z,303.58
2018-11-25T04:08:18.227Z,205.87
2018-11-25T04:09:23.676Z,235.78
2018-11-25T04:10:34.501Z,353.37
2018-11-25T04:11:39.806Z,211.72
2018-11-25T04:12:45.328Z,247.75
2018-11-25T04:13:50.798Z,365.25
2018-11-25T04:14:56.043Z,400.35
2018-11-25T04:16:01.472Z,221.32
2018-11-25T04:17:07.082Z,361.32
2018-11-25T04:18:12.449Z,174.68
2018-11-25T04:19:17.627Z,165.90
2018-11-25T04:20:23.252Z,198.43
2018-11-25T04:21:29.189Z,222.50
2018-11-25T04:22:38.220Z,201.00
2018-11-25T04:23:45.444Z,147.98
2018-11-25T04:24:51.500Z,200.28
2018-11-25T04:25:59.336Z,196.60
2018-11-25T04:27:04.709Z,329.98
2018-11-25T04:28:10.182Z,274.15
2018-11-25T04:29:15.454Z,354.30
2018-11-25T04:30:21.745Z,198.43
2018-11-25T04:31:26.991Z,206.13
2018-11-25T04:32:32.230Z,166.43
2018-11-25T04:33:37.436Z,189.10
2018-11-25T04:34:42.694Z,181.78
2018-11-25T04:35:47.879Z,258.95
2018-11-25T04:36:53.475Z,253.75
2018-11-25T04:37:59.259Z,315.85
2018-11-25T04:39:04.831Z,223.53
2018-11-25T04:40:11.492Z,205.95
2018-11-25T04:41:16.863Z,172.62
2018-11-25T04:42:22.162Z,226.62
2018-11-25T04:43:27.480Z,156.57
2018-11-25T04:44:32.747Z,250.80
2018-11-25T04:45:39.213Z,281.63
2018-11-25T04:46:44.627Z,251.82
2018-11-25T04:47:49.976Z,291.70
2018-11-25T04:49:00.216Z,315.00
2018-11-25T04:50:09.890Z,381.55
2018-11-25T04:51:16.088Z,190.80
2018-11-25T04:52:21.669Z,161.05
2018-11-25T04:53:27.295Z,158.87
2018-11-25T04:54:32.724Z,174.25
2018-11-25T04:55:38.154Z,181.90
2018-11-25T04:56:46.063Z,170.35
2018-11-25T04:57:53.751Z,196.53
2018-11-25T04:58:59.100Z,158.82
2018-11-25T05:00:07.012Z,257.48
2018-11-25T05:01:13.280Z,276.10
2018-11-25T05:02:18.827Z,341.75
2018-11-25T05:03:26.853Z,405.45
2018-11-25T05:04:32.999Z,258.80
2018-11-25T05:05:39.247Z,211.52
2018-11-25T05:06:44.708Z,195.18
2018-11-25T05:07:51.313Z,210.32
2018-11-25T05:08:58.668Z,235.20
2018-11-25T05:10:06.059Z,172.90
2018-11-25T05:11:13.285Z,212.32
2018-11-25T05:12:21.055Z,261.45
2018-11-25T05:13:28.492Z,213.90
2018-11-25T05:14:34.529Z,252.87
2018-11-25T05:15:42.442Z,160.48
2018-11-25T05:16:48.775Z,157.78
2018-11-25T05:17:53.998Z,197.05
2018-11-25T05:19:01.508Z,199.60
2018-11-25T05:20:08.936Z,182.10
2018-11-25T05:21:14.286Z,178.78
2018-11-25T05:22:20.715Z,172.05
2018-11-25T05:23:26.881Z,172.90
2018-11-25T05:24:33.234Z,178.80
2018-11-25T05:25:39.209Z,160.25
2018-11-25T05:26:45.850Z,154.97
2018-11-25T05:27:52.912Z,169.20
2018-11-25T05:30:16.478Z,174.60
2018-11-25T05:31:24.822Z,224.20
2018-11-25T05:32:30.520Z,183.50
2018-11-25T05:33:36.954Z,268.07
2018-11-25T05:34:43.175Z,268.42
2018-11-25T05:35:48.428Z,227.68
2018-11-25T05:36:55.079Z,166.00
2018-11-25T05:38:00.905Z,192.92
2018-11-25T05:39:09.268Z,182.55
2018-11-25T05:40:15.608Z,150.80
2018-11-25T05:41:20.898Z,198.30
2018-11-25T05:42:26.244Z,224.42
2018-11-25T05:43:32.584Z,194.55
2018-11-25T05:44:37.983Z,180.15
2018-11-25T05:45:43.307Z,176.97
2018-11-25T05:46:49.742Z,248.85
2018-11-25T05:47:55.044Z,211.50
2018-11-25T05:49:00.996Z,204.07
2018-11-25T05:50:15.584Z,183.22
2018-11-25T05:51:24.969Z,172.60
2018-11-25T05:52:31.896Z,238.55
2018-11-25T05:53:38.568Z,162.82
2018-11-25T05:54:44.466Z,175.40
2018-11-25T05:55:50.304Z,213.55
2018-11-25T05:56:55.782Z,183.42
2018-11-25T05:58:01.053Z,173.85
2018-11-25T05:59:07.208Z,182.05
2018-11-25T06:00:18.708Z,211.10
2018-11-25T06:01:24.215Z,184.28
2018-11-25T06:02:29.473Z,188.42
2018-11-25T06:03:35.331Z,197.45
2018-11-25T06:04:41.018Z,256.45
2018-11-25T06:05:46.383Z,200.07
2018-11-25T06:06:51.680Z,207.50
2018-11-25T06:07:56.973Z,259.30
2018-11-25T06:09:02.239Z,179.40
2018-11-25T06:10:10.044Z,213.92
2018-11-25T06:11:15.392Z,189.13
2018-11-25T06:12:20.799Z,209.22
2018-11-25T06:13:26.115Z,218.55
2018-11-25T06:14:32.465Z,263.98
2018-11-25T06:15:37.787Z,466.62
2018-11-25T06:16:44.124Z,491.95
2018-11-25T06:17:49.422Z,376.32
2018-11-25T06:18:54.639Z,392.05
2018-11-25T06:19:59.937Z,247.67
2018-11-25T06:21:05.306Z,235.93
2018-11-25T06:22:12.302Z,406.52
2018-11-25T06:23:17.634Z,234.77
2018-11-25T06:24:22.971Z,259.77
2018-11-25T06:25:28.532Z,573.30
2018-11-25T06:26:33.823Z,545.75
2018-11-25T06:27:39.190Z,510.05
2018-11-25T06:28:44.568Z,408.87
2018-11-25T06:29:49.879Z,431.05
2018-11-25T06:30:55.971Z,448.37
2018-11-25T06:32:04.846Z,247.02
2018-11-25T06:33:11.276Z,245.45
2018-11-25T06:34:16.796Z,287.90
2018-11-25T06:35:23.109Z,339.32
2018-11-25T06:36:29.741Z,341.10
2018-11-25T06:37:36.061Z,308.55
2018-11-25T06:38:41.992Z,357.43
2018-11-25T06:39:48.400Z,288.73
2018-11-25T06:40:53.776Z,208.17
2018-11-25T06:41:59.107Z,608.77
2018-11-25T06:43:05.159Z,277.90
2018-11-25T06:44:11.361Z,313.02
2018-11-25T06:45:21.836Z,244.15
2018-11-25T06:46:27.267Z,289.95
2018-11-25T06:47:33.869Z,474.98
2018-11-25T06:48:39.871Z,600.33
2018-11-25T06:49:47.825Z,318.67
2018-11-25T06:50:54.490Z,317.43
2018-11-25T06:51:59.743Z,284.37
2018-11-25T06:53:05.670Z,279.05
2018-11-25T06:54:11.112Z,292.52
2018-11-25T06:55:17.426Z,275.38
2018-11-25T06:56:27.342Z,204.68
2018-11-25T06:57:28.413Z,202.05
2018-11-25T06:58:34.236Z,204.90
2018-11-25T06:59:39.563Z,186.92
2018-11-25T07:00:45.219Z,208.78
2018-11-25T07:01:51.538Z,252.75
2018-11-25T07:02:56.901Z,199.25
2018-11-25T07:04:03.814Z,257.10
2018-11-25T07:05:10.652Z,199.62
2018-11-25T07:06:16.077Z,235.45
2018-11-25T07:07:22.139Z,222.07
2018-11-25T07:08:27.595Z,219.30
2018-11-25T07:09:37.422Z,267.02
2018-11-25T07:10:45.991Z,254.07
2018-11-25T07:11:52.929Z,277.25
2018-11-25T07:13:00.083Z,217.70
2018-11-25T07:14:05.884Z,215.10
2018-11-25T07:15:14.515Z,243.02
2018-11-25T07:16:23.027Z,222.33
2018-11-25T07:17:29.982Z,201.77
2018-11-25T07:18:39.060Z,207.03
2018-11-25T07:19:44.378Z,176.25
2018-11-25T07:20:50.860Z,202.80
2018-11-25T07:21:56.292Z,209.87
2018-11-25T07:23:02.597Z,210.25
2018-11-25T07:24:09.432Z,206.40
2018-11-25T07:25:20.922Z,195.15
2018-11-25T07:26:26.775Z,185.18
2018-11-25T07:27:33.551Z,182.55
2018-11-25T07:28:39.692Z,237.35
2018-11-25T07:29:45.010Z,296.80
2018-11-25T07:30:50.442Z,185.67
2018-11-25T07:31:55.834Z,211.20
2018-11-25T07:33:01.280Z,240.57
2018-11-25T07:34:07.841Z,202.70
2018-11-25T07:35:13.809Z,317.98
2018-11-25T07:36:20.250Z,292.30
2018-11-25T07:37:26.604Z,198.65
2018-11-25T07:38:32.489Z,187.05
2018-11-25T07:39:38.047Z,195.32
2018-11-25T07:40:44.155Z,196.85
2018-11-25T07:41:49.551Z,174.77
2018-11-25T07:42:56.699Z,176.95
2018-11-25T07:44:02.958Z,155.03
2018-11-25T07:45:15.450Z,143.90
2018-11-25T07:46:22.385Z,156.75
2018-11-25T07:47:28.226Z,171.65
2018-11-25T07:48:33.796Z,152.53
2018-11-25T07:49:40.081Z,163.87
2018-11-25T07:50:46.446Z,144.37
2018-11-25T07:51:52.856Z,164.93
2018-11-25T07:52:59.992Z,153.50
2018-11-25T07:54:05.440Z,138.62
2018-11-25T07:55:13.833Z,147.72
2018-11-25T07:56:20.199Z,157.00
2018-11-25T07:57:26.482Z,138.37
2018-11-25T07:58:32.991Z,139.70
2018-11-25T07:59:39.373Z,121.00
2018-11-25T08:00:45.403Z,133.93
2018-11-25T08:01:50.881Z,143.05
2018-11-25T08:02:56.422Z,137.90
2018-11-25T08:04:02.400Z,148.02
2018-11-25T08:05:09.383Z,146.25
2018-11-25T08:06:14.758Z,175.45
2018-11-25T08:07:20.975Z,140.55
2018-11-25T08:08:28.587Z,137.50
2018-11-25T08:09:34.855Z,174.97
2018-11-25T08:10:40.482Z,147.35
2018-11-25T08:11:47.864Z,156.93
2018-11-25T08:12:53.284Z,157.20
2018-11-25T08:13:58.608Z,157.72
2018-11-25T08:15:04.035Z,146.68
2018-11-25T08:16:09.537Z,156.93
2018-11-25T08:17:15.053Z,174.15
2018-11-25T08:18:20.331Z,179.42
2018-11-25T08:19:26.700Z,142.95
2018-11-25T08:20:32.240Z,151.47
2018-11-25T08:21:39.570Z,149.30
2018-11-25T08:22:45.710Z,144.95
2018-11-25T08:23:54.220Z,145.70
2018-11-25T08:24:59.692Z,138.47
2018-11-25T08:26:05.111Z,143.47
2018-11-25T08:27:11.079Z,152.27
2018-11-25T08:28:16.512Z,151.90
2018-11-25T08:29:23.622Z,145.00
2018-11-25T08:30:30.611Z,160.70
2018-11-25T08:31:36.998Z,131.43
2018-11-25T08:32:43.459Z,132.55
2018-11-25T08:33:49.499Z,145.45
2018-11-25T08:34:56.438Z,150.95
2018-11-25T08:36:02.851Z,167.10
2018-11-25T08:37:10.127Z,147.20
2018-11-25T08:38:16.933Z,149.45
2018-11-25T08:39:23.151Z,149.75
2018-11-25T08:40:28.623Z,135.93
2018-11-25T08:41:33.992Z,148.07
2018-11-25T08:42:39.436Z,146.47
2018-11-25T08:43:44.918Z,141.65
2018-11-25T08:44:51.758Z,165.40
2018-11-25T08:45:57.477Z,145.05
2018-11-25T08:47:02.907Z,151.80
2018-11-25T08:48:08.391Z,138.07
2018-11-25T08:49:14.464Z,142.45
2018-11-25T08:50:20.983Z,140.62
2018-11-25T08:51:28.955Z,137.82
2018-11-25T08:52:36.324Z,137.18
2018-11-25T08:53:41.853Z,138.37
2018-11-25T08:54:49.319Z,129.18
2018-11-25T08:55:54.762Z,150.57
2018-11-25T08:57:00.718Z,142.85
2018-11-25T08:58:07.844Z,174.93
2018-11-25T08:59:14.267Z,179.38
2018-11-25T09:00:22.458Z,172.22
2018-11-25T09:01:29.081Z,164.62
2018-11-25T09:02:34.442Z,163.00
2018-11-25T09:03:40.922Z,175.07
2018-11-25T09:04:48.279Z,174.57
2018-11-25T09:05:53.728Z,174.75
2018-11-25T09:06:59.051Z,158.90
2018-11-25T09:08:04.445Z,181.52
2018-11-25T09:09:10.861Z,186.05
2018-11-25T09:10:20.086Z,211.40
2018-11-25T09:11:25.790Z,168.47
2018-11-25T09:12:33.010Z,175.22
2018-11-25T09:13:39.412Z,184.97
2018-11-25T09:14:44.939Z,158.93
2018-11-25T09:15:51.078Z,184.50
2018-11-25T09:16:57.961Z,162.85
2018-11-25T09:18:05.248Z,199.35
2018-11-25T09:19:13.382Z,193.15
2018-11-25T09:20:19.987Z,180.37
2018-11-25T09:21:26.410Z,168.97
2018-11-25T09:22:33.362Z,186.30
2018-11-25T09:23:38.873Z,196.00
2018-11-25T09:24:44.800Z,179.05
2018-11-25T09:25:50.838Z,174.12
2018-11-25T09:26:58.891Z,161.68
2018-11-25T09:28:05.371Z,179.53
2018-11-25T09:29:10.810Z,168.52
2018-11-25T09:30:19.591Z,177.55
2018-11-25T09:31:25.683Z,180.18
2018-11-25T09:32:32.575Z,164.18
2018-11-25T09:33:38.149Z,180.05
2018-11-25T09:34:43.645Z,170.35
2018-11-25T09:35:49.041Z,173.10
2018-11-25T09:36:54.524Z,167.72
2018-11-25T09:38:00.826Z,185.97
2018-11-25T09:39:10.142Z,177.62
2018-11-25T09:40:18.654Z,160.75
2018-11-25T09:41:25.117Z,159.95
2018-11-25T09:42:31.658Z,158.22
2018-11-25T09:43:38.008Z,148.80
2018-11-25T09:44:44.853Z,177.27
2018-11-25T09:45:50.292Z,185.73
2018-11-25T09:46:55.920Z,166.45
2018-11-25T09:48:01.262Z,182.82
2018-11-25T09:49:07.956Z,186.80
2018-11-25T09:50:19.843Z,189.00
2018-11-25T09:51:26.476Z,190.00
2018-11-25T09:52:32.106Z,198.25
2018-11-25T09:53:37.550Z,178.78
2018-11-25T09:54:43.125Z,184.15
2018-11-25T09:55:48.561Z,203.60
2018-11-25T09:56:54.684Z,224.20
2018-11-25T09:58:02.975Z,215.32
2018-11-25T09:59:08.555Z,228.58
2018-11-25T10:00:21.274Z,215.55
2018-11-25T10:01:30.556Z,249.37
2018-11-25T10:02:37.791Z,218.07
2018-11-25T10:03:45.127Z,247.98
2018-11-25T10:04:54.222Z,219.57
2018-11-25T10:05:59.618Z,219.18
2018-11-25T10:07:06.852Z,210.15
2018-11-25T10:08:12.278Z,227.80
2018-11-25T10:09:19.347Z,206.02
2018-11-25T10:10:26.375Z,203.67
2018-11-25T10:11:31.827Z,226.45
2018-11-25T10:12:37.320Z,221.55
2018-11-25T10:13:43.032Z,198.05
2018-11-25T10:14:48.396Z,215.65
2018-11-25T10:15:54.094Z,221.57
2018-11-25T10:17:02.241Z,208.60
2018-11-25T10:18:07.794Z,208.65
2018-11-25T10:19:13.795Z,204.20
2018-11-25T10:20:22.078Z,214.40
2018-11-25T10:21:27.576Z,233.20
2018-11-25T10:22:33.771Z,241.95
2018-11-25T10:23:39.319Z,201.05
2018-11-25T10:24:45.845Z,235.28
2018-11-25T10:25:53.468Z,212.02
2018-11-25T10:27:01.946Z,223.78
2018-11-25T10:28:07.642Z,211.87
2018-11-25T10:29:13.834Z,201.55
2018-11-25T10:30:22.972Z,188.70
2018-11-25T10:31:28.396Z,193.35
2018-11-25T10:32:35.919Z,226.30
2018-11-25T10:33:42.085Z,201.58
2018-11-25T10:34:50.062Z,212.23
2018-11-25T10:35:58.008Z,187.32
2018-11-25T10:37:05.072Z,218.65
2018-11-25T10:38:12.223Z,228.02
2018-11-25T10:39:20.576Z,200.87
2018-11-25T10:40:27.188Z,217.30
2018-11-25T10:41:35.889Z,223.68
2018-11-25T10:42:42.368Z,177.38
2018-11-25T10:43:47.787Z,200.40
2018-11-25T10:44:53.291Z,197.13
2018-11-25T10:45:58.981Z,192.03
2018-11-25T10:47:04.434Z,191.37
2018-11-25T10:48:09.941Z,204.38
2018-11-25T10:49:16.972Z,183.37
2018-11-25T10:50:26.810Z,227.78
2018-11-25T10:51:35.025Z,206.15
2018-11-25T10:52:41.225Z,187.00
2018-11-25T10:53:52.894Z,199.12
2018-11-25T10:55:05.299Z,214.20
2018-11-25T10:56:19.621Z,193.55
2018-11-25T10:57:31.022Z,192.98
2018-11-25T10:58:42.839Z,178.20
2018-11-25T10:59:52.137Z,195.22
2018-11-25T11:01:04.807Z,198.82
2018-11-25T11:02:15.988Z,201.18
2018-11-25T11:03:27.132Z,187.70
2018-11-25T11:04:38.952Z,214.10
2018-11-25T11:05:52.855Z,221.77
2018-11-25T11:07:03.957Z,221.70
2018-11-25T11:08:11.450Z,199.00
2018-11-25T11:09:18.506Z,208.15
2018-11-25T11:10:25.860Z,187.77
2018-11-25T11:11:33.286Z,216.55
2018-11-25T11:12:43.486Z,218.95
2018-11-25T11:13:52.039Z,214.00
2018-11-25T11:14:57.803Z,257.65
2018-11-25T11:16:07.593Z,225.90
2018-11-25T11:17:17.613Z,213.72
2018-11-25T11:18:27.646Z,194.32
2018-11-25T11:19:33.108Z,179.18
2018-11-25T11:20:42.030Z,204.65
2018-11-25T11:21:47.780Z,191.68
2018-11-25T11:22:53.073Z,208.93
2018-11-25T11:23:58.379Z,199.62
2018-11-25T11:25:05.069Z,188.62
2018-11-25T11:26:22.793Z,217.15
2018-11-25T11:27:28.071Z,199.35
2018-11-25T11:28:39.770Z,220.35
2018-11-25T11:29:45.532Z,201.60
2018-11-25T11:30:51.319Z,199.05
2018-11-25T11:31:56.653Z,212.55
2018-11-25T11:33:02.008Z,205.52
2018-11-25T11:34:07.313Z,216.38
2018-11-25T11:35:12.577Z,225.15
2018-11-25T11:36:17.809Z,191.35
2018-11-25T11:37:26.725Z,204.32
2018-11-25T11:38:32.010Z,206.23
2018-11-25T11:39:37.604Z,187.62
2018-11-25T11:40:42.851Z,185.32
2018-11-25T11:41:49.855Z,206.75
2018-11-25T11:42:57.659Z,224.07
2018-11-25T11:44:05.892Z,213.07
2018-11-25T11:45:17.862Z,231.00
2018-11-25T11:46:25.376Z,207.75
2018-11-25T11:47:33.673Z,219.22
2018-11-25T11:48:41.840Z,227.28
2018-11-25T11:49:50.568Z,230.90
2018-11-25T11:50:58.177Z,217.47
2018-11-25T11:52:06.351Z,220.85
2018-11-25T11:53:15.652Z,205.43
2018-11-25T11:54:24.293Z,206.82
2018-11-25T11:55:32.304Z,194.17
2018-11-25T11:56:40.741Z,231.38
2018-11-25T11:57:49.274Z,217.80
2018-11-25T11:58:54.687Z,214.02
2018-11-25T12:00:00.030Z,228.92
2018-11-25T12:01:05.735Z,206.05
2018-11-25T12:02:11.758Z,208.25
2018-11-25T12:03:17.035Z,201.07
2018-11-25T12:04:22.179Z,200.30
2018-11-25T12:05:27.372Z,187.15
2018-11-25T12:06:32.782Z,210.80
2018-11-25T12:10:12.029Z,184.40
2018-11-25T12:11:18.043Z,180.48
2018-11-25T12:12:23.229Z,180.57
2018-11-25T12:13:28.580Z,180.50
2018-11-25T12:14:33.987Z,183.78
2018-11-25T12:15:39.255Z,168.60
2018-11-25T12:16:44.570Z,169.57
2018-11-25T12:17:49.745Z,179.05
2018-11-25T12:18:55.544Z,181.35
2018-11-25T12:20:00.718Z,177.78
2018-11-25T12:21:06.102Z,166.10
2018-11-25T12:22:13.524Z,181.28
2018-11-25T12:23:18.800Z,179.20
2018-11-25T12:24:24.024Z,150.70
2018-11-25T12:25:29.229Z,158.27
2018-11-25T12:26:34.415Z,159.78
2018-11-25T12:27:39.663Z,174.00
2018-11-25T12:28:45.162Z,166.37
2018-11-25T12:29:50.467Z,168.17
2018-11-25T12:30:55.675Z,164.55
2018-11-25T12:32:00.842Z,174.10
2018-11-25T12:33:06.615Z,175.55
2018-11-25T12:34:11.979Z,176.72
2018-11-25T12:35:17.977Z,162.55
2018-11-25T12:36:23.428Z,162.07
2018-11-25T12:37:29.255Z,168.05
2018-11-25T12:38:33.975Z,164.88
2018-11-25T12:39:39.210Z,170.17
2018-11-25T12:40:44.423Z,154.00
2018-11-25T12:41:49.659Z,165.82
2018-11-25T12:42:57.952Z,162.62
2018-11-25T12:44:03.197Z,161.10
2018-11-25T12:45:12.155Z,180.32
2018-11-25T12:46:22.208Z,166.03
2018-11-25T12:47:27.423Z,154.12
2018-11-25T12:48:32.782Z,158.95
2018-11-25T12:49:38.011Z,147.55
2018-11-25T12:50:43.382Z,146.60
2018-11-25T12:51:49.099Z,137.65
2018-11-25T12:52:54.334Z,154.93
2018-11-25T12:53:59.485Z,173.05
2018-11-25T12:55:04.857Z,149.90
2018-11-25T12:56:10.066Z,156.10
2018-11-25T12:57:15.268Z,155.32
2018-11-25T12:58:20.428Z,161.77
2018-11-25T12:59:25.649Z,161.25
2018-11-25T13:00:37.147Z,156.30
2018-11-25T13:01:42.390Z,150.05
2018-11-25T13:02:47.604Z,142.82
2018-11-25T13:03:52.740Z,141.25
2018-11-25T13:04:58.549Z,149.00
2018-11-25T13:06:03.712Z,164.37
2018-11-25T13:07:08.918Z,141.45
2018-11-25T13:08:15.100Z,156.30
2018-11-25T13:09:20.257Z,151.50
2018-11-25T13:10:25.464Z,158.00
2018-11-25T13:11:30.683Z,145.85
2018-11-25T13:12:35.835Z,138.32
2018-11-25T13:13:41.047Z,147.65
2018-11-25T13:14:46.787Z,135.28
2018-11-25T13:15:51.967Z,146.87
2018-11-25T13:16:57.173Z,157.03
2018-11-25T13:18:02.440Z,127.72
2018-11-25T13:19:08.124Z,145.77
2018-11-25T13:20:14.607Z,149.47
2018-11-25T13:21:19.769Z,149.68
2018-11-25T13:22:25.859Z,147.62
2018-11-25T13:23:32.179Z,150.00
2018-11-25T13:24:37.376Z,152.80
2018-11-25T13:25:42.561Z,164.20
2018-11-25T13:26:47.775Z,158.57
2018-11-25T13:27:53.050Z,157.20
2018-11-25T13:28:58.406Z,158.10
2018-11-25T13:30:03.751Z,159.90
2018-11-25T13:31:09.022Z,151.25
2018-11-25T13:32:14.119Z,147.13
2018-11-25T13:33:19.377Z,142.62
2018-11-25T13:34:24.592Z,156.07
2018-11-25T13:35:31.223Z,151.60
2018-11-25T13:36:36.330Z,152.30
2018-11-25T13:37:41.559Z,151.37
2018-11-25T13:38:46.796Z,152.07
2018-11-25T13:39:52.396Z,159.65
2018-11-25T13:40:57.565Z,189.67
2018-11-25T13:42:02.752Z,167.53
2018-11-25T13:43:08.347Z,157.93
2018-11-25T13:44:13.562Z,170.57
2018-11-25T13:45:18.869Z,167.13
2018-11-25T13:46:25.102Z,175.47
2018-11-25T13:47:30.347Z,166.43
2018-11-25T13:48:35.464Z,164.40
2018-11-25T13:49:40.773Z,154.03
2018-11-25T13:50:46.154Z,155.75
2018-11-25T13:51:51.390Z,164.88
2018-11-25T13:52:56.640Z,148.70
2018-11-25T13:54:01.903Z,165.70